Aviation Digital Data Service (ADDS)

Output produced by TAFs form (1222 UTC 24 July 2014)
found at http://www.aviationweather.gov/adds/tafs/
 
KBJC 241155Z AUTO 27004KT 10SM CLR 20/10 A3016 RMK AO2
KBJC 241125Z 2412/2512 VRB05KT P6SM FEW120 BKN180 
     FM241500 28010KT P6SM SCT110 SCT170 
     FM241800 29012KT P6SM VCSH SCT090 BKN120 
     TEMPO 2418/2422 VRB25G35KT -TSRA BKN080CB 
     FM250100 28011KT P6SM SCT090 BKN140 BKN200 
     FM250500 23010KT P6SM FEW110 BKN200